sensor_id;sensor_type;location;lat;lon;timestamp;temperature;humidity
33139;DHT22;19501;50.948;5.316;2023-11-18T00:00:49;6.40;99.90
33139;DHT22;19501;50.948;5.316;2023-11-18T00:03:16;6.50;99.90
33139;DHT22;19501;50.948;5.316;2023-11-18T00:05:42;6.50;99.90
33139;DHT22;19501;50.948;5.316;2023-11-18T00:08:07;6.60;99.90
33139;DHT22;19501;50.948;5.316;2023-11-18T00:10:33;6.70;99.90
33139;DHT22;19501;50.948;5.316;2023-11-18T00:12:59;6.70;99.90
33139;DHT22;19501;50.948;5.316;2023-11-18T00:15:27;6.70;99.90
33139;DHT22;19501;50.948;5.316;2023-11-18T00:17:52;6.80;99.90
33139;DHT22;19501;50.948;5.316;2023-11-18T00:20:18;6.80;99.90
33139;DHT22;19501;50.948;5.316;2023-11-18T00:22:45;6.70;99.90
33139;DHT22;19501;50.948;5.316;2023-11-18T00:25:10;6.70;99.90
33139;DHT22;19501;50.948;5.316;2023-11-18T00:27:36;6.80;99.90
33139;DHT22;19501;50.948;5.316;2023-11-18T00:30:03;6.70;99.90
33139;DHT22;19501;50.948;5.316;2023-11-18T00:32:39;6.70;99.90
33139;DHT22;19501;50.948;5.316;2023-11-18T00:35:05;6.70;99.90
33139;DHT22;19501;50.948;5.316;2023-11-18T00:37:35;6.60;99.90
33139;DHT22;19501;50.948;5.316;2023-11-18T00:40:01;6.60;99.90
33139;DHT22;19501;50.948;5.316;2023-11-18T00:42:26;6.40;99.90
33139;DHT22;19501;50.948;5.316;2023-11-18T00:44:52;6.40;99.90
33139;DHT22;19501;50.948;5.316;2023-11-18T00:47:20;6.40;99.90
33139;DHT22;19501;50.948;5.316;2023-11-18T00:49:48;6.50;99.90
33139;DHT22;19501;50.948;5.316;2023-11-18T00:52:15;6.40;99.90
33139;DHT22;19501;50.948;5.316;2023-11-18T00:54:40;6.40;99.90
33139;DHT22;19501;50.948;5.316;2023-11-18T00:57:06;6.30;99.90
33139;DHT22;19501;50.948;5.316;2023-11-18T00:59:32;6.40;99.90
33139;DHT22;19501;50.948;5.316;2023-11-18T01:01:58;6.40;99.90
33139;DHT22;19501;50.948;5.316;2023-11-18T01:04:24;6.50;99.90
33139;DHT22;19501;50.948;5.316;2023-11-18T01:06:51;6.50;99.90
33139;DHT22;19501;50.948;5.316;2023-11-18T01:09:17;6.50;99.90
33139;DHT22;19501;50.948;5.316;2023-11-18T01:11:42;6.40;99.90
33139;DHT22;19501;50.948;5.316;2023-11-18T01:14:08;6.40;99.90
33139;DHT22;19501;50.948;5.316;2023-11-18T01:16:34;6.50;99.90
33139;DHT22;19501;50.948;5.316;2023-11-18T01:18:59;6.50;99.90
33139;DHT22;19501;50.948;5.316;2023-11-18T01:21:25;6.60;99.90
33139;DHT22;19501;50.948;5.316;2023-11-18T01:23:51;6.60;99.90
33139;DHT22;19501;50.948;5.316;2023-11-18T01:26:16;6.70;99.90
33139;DHT22;19501;50.948;5.316;2023-11-18T01:28:42;6.70;99.90
33139;DHT22;19501;50.948;5.316;2023-11-18T01:31:09;6.70;99.90
33139;DHT22;19501;50.948;5.316;2023-11-18T01:33:44;6.80;99.90
33139;DHT22;19501;50.948;5.316;2023-11-18T01:36:11;6.80;99.90
33139;DHT22;19501;50.948;5.316;2023-11-18T01:38:37;6.70;99.90
33139;DHT22;19501;50.948;5.316;2023-11-18T01:41:09;6.70;99.90
33139;DHT22;19501;50.948;5.316;2023-11-18T01:43:37;6.70;99.90
33139;DHT22;19501;50.948;5.316;2023-11-18T01:46:08;6.70;99.90
33139;DHT22;19501;50.948;5.316;2023-11-18T01:48:36;6.70;99.90
33139;DHT22;19501;50.948;5.316;2023-11-18T01:51:05;6.70;99.90
33139;DHT22;19501;50.948;5.316;2023-11-18T01:53:32;6.80;99.90
33139;DHT22;19501;50.948;5.316;2023-11-18T01:56:02;6.70;99.90
33139;DHT22;19501;50.948;5.316;2023-11-18T01:58:28;6.70;99.90
33139;DHT22;19501;50.948;5.316;2023-11-18T02:00:56;6.70;99.90
33139;DHT22;19501;50.948;5.316;2023-11-18T02:03:23;6.80;99.90
33139;DHT22;19501;50.948;5.316;2023-11-18T02:05:48;6.90;99.90
33139;DHT22;19501;50.948;5.316;2023-11-18T02:08:14;6.90;99.90
33139;DHT22;19501;50.948;5.316;2023-11-18T02:10:48;6.90;99.90
33139;DHT22;19501;50.948;5.316;2023-11-18T02:13:29;6.80;99.90
33139;DHT22;19501;50.948;5.316;2023-11-18T02:15:56;7.00;99.90
33139;DHT22;19501;50.948;5.316;2023-11-18T02:18:28;7.00;99.90
33139;DHT22;19501;50.948;5.316;2023-11-18T02:20:57;7.00;99.90
33139;DHT22;19501;50.948;5.316;2023-11-18T02:23:25;7.00;99.90
33139;DHT22;19501;50.948;5.316;2023-11-18T02:25:54;6.90;99.90
33139;DHT22;19501;50.948;5.316;2023-11-18T02:28:21;6.90;99.90
33139;DHT22;19501;50.948;5.316;2023-11-18T02:30:47;6.90;99.90
33139;DHT22;19501;50.948;5.316;2023-11-18T02:33:33;6.80;99.90
33139;DHT22;19501;50.948;5.316;2023-11-18T02:36:05;6.90;99.90
33139;DHT22;19501;50.948;5.316;2023-11-18T02:38:39;6.80;99.90
33139;DHT22;19501;50.948;5.316;2023-11-18T02:41:09;6.90;99.90
33139;DHT22;19501;50.948;5.316;2023-11-18T02:43:36;6.90;99.90
33139;DHT22;19501;50.948;5.316;2023-11-18T02:46:04;6.60;99.90
33139;DHT22;19501;50.948;5.316;2023-11-18T02:48:31;6.50;99.90
33139;DHT22;19501;50.948;5.316;2023-11-18T02:51:01;6.50;99.90
33139;DHT22;19501;50.948;5.316;2023-11-18T02:53:27;6.50;99.90
33139;DHT22;19501;50.948;5.316;2023-11-18T02:55:53;6.50;99.90
33139;DHT22;19501;50.948;5.316;2023-11-18T02:58:19;6.40;99.90
33139;DHT22;19501;50.948;5.316;2023-11-18T03:00:45;6.40;99.90
33139;DHT22;19501;50.948;5.316;2023-11-18T03:03:11;6.40;99.90
33139;DHT22;19501;50.948;5.316;2023-11-18T03:05:37;6.40;99.90
33139;DHT22;19501;50.948;5.316;2023-11-18T03:08:04;6.40;99.90
33139;DHT22;19501;50.948;5.316;2023-11-18T03:10:34;6.40;99.90
33139;DHT22;19501;50.948;5.316;2023-11-18T03:13:00;6.50;99.90
33139;DHT22;19501;50.948;5.316;2023-11-18T03:15:26;6.40;99.90
33139;DHT22;19501;50.948;5.316;2023-11-18T03:17:53;6.40;99.90
33139;DHT22;19501;50.948;5.316;2023-11-18T03:20:21;6.40;99.90
33139;DHT22;19501;50.948;5.316;2023-11-18T03:22:49;6.50;99.90
33139;DHT22;19501;50.948;5.316;2023-11-18T03:25:16;6.60;99.90
33139;DHT22;19501;50.948;5.316;2023-11-18T03:27:42;6.50;99.90
33139;DHT22;19501;50.948;5.316;2023-11-18T03:30:09;6.50;99.90
33139;DHT22;19501;50.948;5.316;2023-11-18T03:32:39;6.70;99.90
33139;DHT22;19501;50.948;5.316;2023-11-18T03:35:10;6.70;99.90
33139;DHT22;19501;50.948;5.316;2023-11-18T03:37:37;6.80;99.90
33139;DHT22;19501;50.948;5.316;2023-11-18T03:40:08;6.80;99.90
33139;DHT22;19501;50.948;5.316;2023-11-18T03:42:34;6.90;99.90
33139;DHT22;19501;50.948;5.316;2023-11-18T03:45:01;6.90;99.90
33139;DHT22;19501;50.948;5.316;2023-11-18T03:47:26;6.90;99.90
33139;DHT22;19501;50.948;5.316;2023-11-18T03:49:52;7.00;99.90
33139;DHT22;19501;50.948;5.316;2023-11-18T03:52:19;7.00;99.90
33139;DHT22;19501;50.948;5.316;2023-11-18T03:54:45;7.00;99.90
33139;DHT22;19501;50.948;5.316;2023-11-18T03:57:11;7.00;99.90
33139;DHT22;19501;50.948;5.316;2023-11-18T03:59:38;7.00;99.90
33139;DHT22;19501;50.948;5.316;2023-11-18T04:02:04;7.10;99.90
33139;DHT22;19501;50.948;5.316;2023-11-18T04:04:29;7.10;99.90
33139;DHT22;19501;50.948;5.316;2023-11-18T04:06:55;7.00;99.90
33139;DHT22;19501;50.948;5.316;2023-11-18T04:09:21;7.10;99.90
33139;DHT22;19501;50.948;5.316;2023-11-18T04:11:47;7.10;99.90
33139;DHT22;19501;50.948;5.316;2023-11-18T04:14:12;7.10;99.90
33139;DHT22;19501;50.948;5.316;2023-11-18T04:16:38;7.10;99.90
33139;DHT22;19501;50.948;5.316;2023-11-18T04:19:04;7.00;99.90
33139;DHT22;19501;50.948;5.316;2023-11-18T04:21:30;7.00;99.90
33139;DHT22;19501;50.948;5.316;2023-11-18T04:23:56;7.00;99.90
33139;DHT22;19501;50.948;5.316;2023-11-18T04:26:22;7.00;99.90
33139;DHT22;19501;50.948;5.316;2023-11-18T04:28:47;6.90;99.90
33139;DHT22;19501;50.948;5.316;2023-11-18T04:31:13;7.00;99.90
33139;DHT22;19501;50.948;5.316;2023-11-18T04:33:39;7.00;99.90
33139;DHT22;19501;50.948;5.316;2023-11-18T04:36:07;7.10;99.90
33139;DHT22;19501;50.948;5.316;2023-11-18T04:38:35;7.00;99.90
33139;DHT22;19501;50.948;5.316;2023-11-18T04:41:03;6.90;99.90
33139;DHT22;19501;50.948;5.316;2023-11-18T04:43:29;6.90;99.90
33139;DHT22;19501;50.948;5.316;2023-11-18T04:45:56;6.90;99.90
33139;DHT22;19501;50.948;5.316;2023-11-18T04:48:21;7.00;99.90
33139;DHT22;19501;50.948;5.316;2023-11-18T04:50:47;7.00;99.90
33139;DHT22;19501;50.948;5.316;2023-11-18T04:53:13;7.10;99.90
33139;DHT22;19501;50.948;5.316;2023-11-18T04:55:39;7.10;99.90
33139;DHT22;19501;50.948;5.316;2023-11-18T04:58:07;7.00;99.90
33139;DHT22;19501;50.948;5.316;2023-11-18T05:00:35;6.90;99.90
33139;DHT22;19501;50.948;5.316;2023-11-18T05:03:03;6.80;99.90
33139;DHT22;19501;50.948;5.316;2023-11-18T05:05:31;6.70;99.90
33139;DHT22;19501;50.948;5.316;2023-11-18T05:07:57;6.70;99.90
33139;DHT22;19501;50.948;5.316;2023-11-18T05:10:23;6.80;99.90
33139;DHT22;19501;50.948;5.316;2023-11-18T05:12:49;6.90;99.90
33139;DHT22;19501;50.948;5.316;2023-11-18T05:15:21;7.00;99.90
33139;DHT22;19501;50.948;5.316;2023-11-18T05:17:53;7.00;99.90
33139;DHT22;19501;50.948;5.316;2023-11-18T05:20:20;7.10;99.90
33139;DHT22;19501;50.948;5.316;2023-11-18T05:22:46;7.10;99.90
33139;DHT22;19501;50.948;5.316;2023-11-18T05:25:11;7.00;99.90
33139;DHT22;19501;50.948;5.316;2023-11-18T05:27:37;6.90;99.90
33139;DHT22;19501;50.948;5.316;2023-11-18T05:30:06;6.90;99.90
33139;DHT22;19501;50.948;5.316;2023-11-18T05:32:32;6.80;99.90
33139;DHT22;19501;50.948;5.316;2023-11-18T05:34:59;6.80;99.90
33139;DHT22;19501;50.948;5.316;2023-11-18T05:37:25;6.80;99.90
33139;DHT22;19501;50.948;5.316;2023-11-18T05:39:51;6.80;99.90
33139;DHT22;19501;50.948;5.316;2023-11-18T05:42:27;6.90;99.90
33139;DHT22;19501;50.948;5.316;2023-11-18T05:44:52;7.00;99.90
33139;DHT22;19501;50.948;5.316;2023-11-18T05:47:25;7.00;99.90
33139;DHT22;19501;50.948;5.316;2023-11-18T05:49:54;7.00;99.90
33139;DHT22;19501;50.948;5.316;2023-11-18T05:52:20;7.10;99.90
33139;DHT22;19501;50.948;5.316;2023-11-18T05:54:49;7.10;99.90
33139;DHT22;19501;50.948;5.316;2023-11-18T05:57:20;7.10;99.90
33139;DHT22;19501;50.948;5.316;2023-11-18T05:59:46;7.10;99.90
33139;DHT22;19501;50.948;5.316;2023-11-18T06:02:14;7.10;99.90
33139;DHT22;19501;50.948;5.316;2023-11-18T06:04:46;7.10;99.90
33139;DHT22;19501;50.948;5.316;2023-11-18T06:07:12;7.20;99.90
33139;DHT22;19501;50.948;5.316;2023-11-18T06:09:41;7.30;99.90
33139;DHT22;19501;50.948;5.316;2023-11-18T06:12:09;7.30;99.90
33139;DHT22;19501;50.948;5.316;2023-11-18T06:14:36;7.20;99.90
33139;DHT22;19501;50.948;5.316;2023-11-18T06:17:03;7.10;99.90
33139;DHT22;19501;50.948;5.316;2023-11-18T06:19:28;7.10;99.90
33139;DHT22;19501;50.948;5.316;2023-11-18T06:21:54;7.20;99.90
33139;DHT22;19501;50.948;5.316;2023-11-18T06:24:20;7.20;99.90
33139;DHT22;19501;50.948;5.316;2023-11-18T06:26:47;7.30;99.90
33139;DHT22;19501;50.948;5.316;2023-11-18T06:29:15;7.20;99.90
33139;DHT22;19501;50.948;5.316;2023-11-18T06:31:41;7.30;99.90
33139;DHT22;19501;50.948;5.316;2023-11-18T06:34:07;7.30;99.90
33139;DHT22;19501;50.948;5.316;2023-11-18T06:36:33;7.40;99.90
33139;DHT22;19501;50.948;5.316;2023-11-18T06:38:58;7.40;99.90
33139;DHT22;19501;50.948;5.316;2023-11-18T06:41:24;7.50;99.90
33139;DHT22;19501;50.948;5.316;2023-11-18T06:43:58;7.50;99.90
33139;DHT22;19501;50.948;5.316;2023-11-18T06:46:29;7.50;99.90
33139;DHT22;19501;50.948;5.316;2023-11-18T06:48:59;7.40;99.90
33139;DHT22;19501;50.948;5.316;2023-11-18T06:51:29;7.40;99.90
33139;DHT22;19501;50.948;5.316;2023-11-18T06:54:00;7.30;99.90
33139;DHT22;19501;50.948;5.316;2023-11-18T06:56:28;7.30;99.90
33139;DHT22;19501;50.948;5.316;2023-11-18T06:58:54;7.30;99.90
33139;DHT22;19501;50.948;5.316;2023-11-18T07:01:20;7.30;99.90
33139;DHT22;19501;50.948;5.316;2023-11-18T07:03:47;7.30;99.90
33139;DHT22;19501;50.948;5.316;2023-11-18T07:06:20;7.30;99.90
33139;DHT22;19501;50.948;5.316;2023-11-18T07:08:55;7.30;99.90
33139;DHT22;19501;50.948;5.316;2023-11-18T07:11:26;7.30;99.90
33139;DHT22;19501;50.948;5.316;2023-11-18T07:13:52;7.30;99.90
33139;DHT22;19501;50.948;5.316;2023-11-18T07:16:24;7.40;99.90
33139;DHT22;19501;50.948;5.316;2023-11-18T07:18:51;7.40;99.90
33139;DHT22;19501;50.948;5.316;2023-11-18T07:21:17;7.40;99.90
33139;DHT22;19501;50.948;5.316;2023-11-18T07:23:42;7.50;99.90
33139;DHT22;19501;50.948;5.316;2023-11-18T07:26:08;7.60;99.90
33139;DHT22;19501;50.948;5.316;2023-11-18T07:28:39;7.60;99.90
33139;DHT22;19501;50.948;5.316;2023-11-18T07:31:05;7.60;99.90
33139;DHT22;19501;50.948;5.316;2023-11-18T07:33:31;7.60;99.90
33139;DHT22;19501;50.948;5.316;2023-11-18T07:35:58;7.60;99.90
33139;DHT22;19501;50.948;5.316;2023-11-18T07:38:24;7.60;99.90
33139;DHT22;19501;50.948;5.316;2023-11-18T07:40:54;7.60;99.90
33139;DHT22;19501;50.948;5.316;2023-11-18T07:43:22;7.70;99.90
33139;DHT22;19501;50.948;5.316;2023-11-18T07:45:48;7.70;99.90
33139;DHT22;19501;50.948;5.316;2023-11-18T07:48:21;7.80;99.90
33139;DHT22;19501;50.948;5.316;2023-11-18T07:50:47;7.70;99.90
33139;DHT22;19501;50.948;5.316;2023-11-18T07:53:15;7.80;99.90
33139;DHT22;19501;50.948;5.316;2023-11-18T07:55:41;8.00;99.90
33139;DHT22;19501;50.948;5.316;2023-11-18T07:58:08;7.90;99.90
33139;DHT22;19501;50.948;5.316;2023-11-18T08:00:40;7.90;99.90
33139;DHT22;19501;50.948;5.316;2023-11-18T08:03:06;7.80;99.90
33139;DHT22;19501;50.948;5.316;2023-11-18T08:05:37;7.80;99.90
33139;DHT22;19501;50.948;5.316;2023-11-18T08:08:07;7.80;99.90
33139;DHT22;19501;50.948;5.316;2023-11-18T08:10:34;7.80;99.90
33139;DHT22;19501;50.948;5.316;2023-11-18T08:13:04;7.70;99.90
33139;DHT22;19501;50.948;5.316;2023-11-18T08:15:32;7.80;99.90
33139;DHT22;19501;50.948;5.316;2023-11-18T08:17:57;7.80;99.90
33139;DHT22;19501;50.948;5.316;2023-11-18T08:20:23;7.80;99.90
33139;DHT22;19501;50.948;5.316;2023-11-18T08:22:50;7.80;99.90
33139;DHT22;19501;50.948;5.316;2023-11-18T08:25:16;7.90;99.90
33139;DHT22;19501;50.948;5.316;2023-11-18T08:27:44;7.80;99.90
33139;DHT22;19501;50.948;5.316;2023-11-18T08:30:11;7.80;99.90
33139;DHT22;19501;50.948;5.316;2023-11-18T08:32:38;7.80;99.90
33139;DHT22;19501;50.948;5.316;2023-11-18T08:35:07;7.80;99.90
33139;DHT22;19501;50.948;5.316;2023-11-18T08:37:34;7.80;99.90
33139;DHT22;19501;50.948;5.316;2023-11-18T08:40:04;7.80;99.90
33139;DHT22;19501;50.948;5.316;2023-11-18T08:45:16;7.80;99.90
33139;DHT22;19501;50.948;5.316;2023-11-18T08:47:49;7.80;99.90
33139;DHT22;19501;50.948;5.316;2023-11-18T08:50:17;7.90;99.90
33139;DHT22;19501;50.948;5.316;2023-11-18T08:52:44;7.80;99.90
33139;DHT22;19501;50.948;5.316;2023-11-18T08:55:13;7.80;99.90
33139;DHT22;19501;50.948;5.316;2023-11-18T08:57:44;7.80;99.90
33139;DHT22;19501;50.948;5.316;2023-11-18T09:00:30;7.80;99.90
33139;DHT22;19501;50.948;5.316;2023-11-18T09:03:15;7.70;99.90
33139;DHT22;19501;50.948;5.316;2023-11-18T09:05:51;7.70;99.90
33139;DHT22;19501;50.948;5.316;2023-11-18T09:08:30;7.80;99.90
33139;DHT22;19501;50.948;5.316;2023-11-18T09:11:04;7.90;99.90
33139;DHT22;19501;50.948;5.316;2023-11-18T09:13:34;7.80;99.90
33139;DHT22;19501;50.948;5.316;2023-11-18T09:16:06;7.80;99.90
33139;DHT22;19501;50.948;5.316;2023-11-18T09:18:36;7.80;99.90
33139;DHT22;19501;50.948;5.316;2023-11-18T09:21:02;7.80;99.90
33139;DHT22;19501;50.948;5.316;2023-11-18T09:23:30;7.80;99.90
33139;DHT22;19501;50.948;5.316;2023-11-18T09:25:57;7.80;99.90
33139;DHT22;19501;50.948;5.316;2023-11-18T09:28:24;7.80;99.90
33139;DHT22;19501;50.948;5.316;2023-11-18T09:30:50;7.80;99.90
33139;DHT22;19501;50.948;5.316;2023-11-18T09:33:20;7.90;99.90
33139;DHT22;19501;50.948;5.316;2023-11-18T09:35:58;7.80;99.90
33139;DHT22;19501;50.948;5.316;2023-11-18T09:38:31;7.80;99.90
33139;DHT22;19501;50.948;5.316;2023-11-18T09:40:59;7.80;99.90
33139;DHT22;19501;50.948;5.316;2023-11-18T09:43:33;7.80;99.90
33139;DHT22;19501;50.948;5.316;2023-11-18T09:46:09;7.80;99.90
33139;DHT22;19501;50.948;5.316;2023-11-18T09:49:26;7.90;99.90
33139;DHT22;19501;50.948;5.316;2023-11-18T09:51:59;7.90;99.90
33139;DHT22;19501;50.948;5.316;2023-11-18T09:54:50;7.90;99.90
33139;DHT22;19501;50.948;5.316;2023-11-18T09:57:37;8.00;99.90
33139;DHT22;19501;50.948;5.316;2023-11-18T10:02:52;8.00;99.90
33139;DHT22;19501;50.948;5.316;2023-11-18T10:05:21;8.00;99.90
33139;DHT22;19501;50.948;5.316;2023-11-18T10:07:48;8.00;99.90
33139;DHT22;19501;50.948;5.316;2023-11-18T10:10:18;8.00;99.90
33139;DHT22;19501;50.948;5.316;2023-11-18T10:12:47;8.10;99.90
33139;DHT22;19501;50.948;5.316;2023-11-18T10:15:24;8.10;99.90
33139;DHT22;19501;50.948;5.316;2023-11-18T10:17:53;8.10;99.90
33139;DHT22;19501;50.948;5.316;2023-11-18T10:23:08;8.30;99.90
33139;DHT22;19501;50.948;5.316;2023-11-18T10:25:53;8.30;99.90
33139;DHT22;19501;50.948;5.316;2023-11-18T10:31:02;8.30;99.90
33139;DHT22;19501;50.948;5.316;2023-11-18T10:33:40;8.30;99.90
33139;DHT22;19501;50.948;5.316;2023-11-18T10:36:17;8.20;99.90
33139;DHT22;19501;50.948;5.316;2023-11-18T10:38:48;8.30;99.90
33139;DHT22;19501;50.948;5.316;2023-11-18T10:41:15;8.30;99.90
33139;DHT22;19501;50.948;5.316;2023-11-18T10:43:45;8.30;99.90
33139;DHT22;19501;50.948;5.316;2023-11-18T10:46:15;8.40;99.90
33139;DHT22;19501;50.948;5.316;2023-11-18T10:48:46;8.40;99.90
33139;DHT22;19501;50.948;5.316;2023-11-18T10:51:19;8.40;99.90
33139;DHT22;19501;50.948;5.316;2023-11-18T10:53:50;8.40;99.90
33139;DHT22;19501;50.948;5.316;2023-11-18T10:56:24;8.40;99.90
33139;DHT22;19501;50.948;5.316;2023-11-18T10:59:05;8.40;99.90
33139;DHT22;19501;50.948;5.316;2023-11-18T11:01:33;8.40;99.90
33139;DHT22;19501;50.948;5.316;2023-11-18T11:04:00;8.40;99.90
33139;DHT22;19501;50.948;5.316;2023-11-18T11:06:30;8.40;99.90
33139;DHT22;19501;50.948;5.316;2023-11-18T11:08:57;8.50;99.90
33139;DHT22;19501;50.948;5.316;2023-11-18T11:11:29;8.50;99.90
33139;DHT22;19501;50.948;5.316;2023-11-18T11:14:03;8.50;99.90
33139;DHT22;19501;50.948;5.316;2023-11-18T11:16:52;8.50;99.90
33139;DHT22;19501;50.948;5.316;2023-11-18T11:19:35;8.40;99.90
33139;DHT22;19501;50.948;5.316;2023-11-18T11:22:12;8.50;99.90
33139;DHT22;19501;50.948;5.316;2023-11-18T11:24:59;8.50;99.90
33139;DHT22;19501;50.948;5.316;2023-11-18T11:27:46;8.60;99.90
33139;DHT22;19501;50.948;5.316;2023-11-18T11:30:23;8.60;99.90
33139;DHT22;19501;50.948;5.316;2023-11-18T11:33:03;8.60;99.90
33139;DHT22;19501;50.948;5.316;2023-11-18T11:35:37;8.50;99.90
33139;DHT22;19501;50.948;5.316;2023-11-18T11:38:06;8.50;99.90
33139;DHT22;19501;50.948;5.316;2023-11-18T11:40:37;8.50;99.90
33139;DHT22;19501;50.948;5.316;2023-11-18T11:43:05;8.50;99.90
33139;DHT22;19501;50.948;5.316;2023-11-18T11:45:35;8.50;99.90
33139;DHT22;19501;50.948;5.316;2023-11-18T11:48:03;8.50;99.90
33139;DHT22;19501;50.948;5.316;2023-11-18T11:53:42;8.50;99.90
33139;DHT22;19501;50.948;5.316;2023-11-18T11:56:11;8.50;99.90
33139;DHT22;19501;50.948;5.316;2023-11-18T11:58:41;8.60;99.90
33139;DHT22;19501;50.948;5.316;2023-11-18T12:01:32;8.60;99.90
33139;DHT22;19501;50.948;5.316;2023-11-18T12:04:03;8.60;99.90
33139;DHT22;19501;50.948;5.316;2023-11-18T12:06:33;8.60;99.90
33139;DHT22;19501;50.948;5.316;2023-11-18T12:09:02;8.60;99.90
33139;DHT22;19501;50.948;5.316;2023-11-18T12:11:34;8.60;99.90
33139;DHT22;19501;50.948;5.316;2023-11-18T12:14:06;8.60;99.90
33139;DHT22;19501;50.948;5.316;2023-11-18T12:19:32;8.60;99.90
33139;DHT22;19501;50.948;5.316;2023-11-18T12:22:02;8.60;99.90
33139;DHT22;19501;50.948;5.316;2023-11-18T12:24:38;8.60;99.90
33139;DHT22;19501;50.948;5.316;2023-11-18T12:27:09;8.70;99.90
33139;DHT22;19501;50.948;5.316;2023-11-18T12:29:47;8.70;99.90
33139;DHT22;19501;50.948;5.316;2023-11-18T12:35:20;8.70;99.90
33139;DHT22;19501;50.948;5.316;2023-11-18T12:40:56;8.70;99.90
33139;DHT22;19501;50.948;5.316;2023-11-18T12:43:48;8.70;99.90
33139;DHT22;19501;50.948;5.316;2023-11-18T12:46:49;8.80;99.90
33139;DHT22;19501;50.948;5.316;2023-11-18T12:49:19;8.80;99.90
33139;DHT22;19501;50.948;5.316;2023-11-18T12:51:52;8.80;99.90
33139;DHT22;19501;50.948;5.316;2023-11-18T12:54:19;8.80;99.90
33139;DHT22;19501;50.948;5.316;2023-11-18T12:56:45;8.80;99.90
33139;DHT22;19501;50.948;5.316;2023-11-18T12:59:18;8.80;99.90
33139;DHT22;19501;50.948;5.316;2023-11-18T13:01:44;8.90;99.90
33139;DHT22;19501;50.948;5.316;2023-11-18T13:04:17;8.90;99.90
33139;DHT22;19501;50.948;5.316;2023-11-18T13:06:46;8.90;99.90
33139;DHT22;19501;50.948;5.316;2023-11-18T13:09:12;9.00;99.90
33139;DHT22;19501;50.948;5.316;2023-11-18T13:11:57;8.90;99.90
33139;DHT22;19501;50.948;5.316;2023-11-18T13:14:25;8.90;99.90
33139;DHT22;19501;50.948;5.316;2023-11-18T13:16:55;8.90;99.90
33139;DHT22;19501;50.948;5.316;2023-11-18T13:19:24;8.80;99.90
33139;DHT22;19501;50.948;5.316;2023-11-18T13:21:51;8.90;99.90
33139;DHT22;19501;50.948;5.316;2023-11-18T13:24:17;8.80;99.90
33139;DHT22;19501;50.948;5.316;2023-11-18T13:26:43;8.90;99.90
33139;DHT22;19501;50.948;5.316;2023-11-18T13:29:08;8.80;99.90
33139;DHT22;19501;50.948;5.316;2023-11-18T13:31:34;8.80;99.90
33139;DHT22;19501;50.948;5.316;2023-11-18T13:34:01;8.80;99.90
33139;DHT22;19501;50.948;5.316;2023-11-18T13:36:29;8.80;99.90
33139;DHT22;19501;50.948;5.316;2023-11-18T13:38:56;8.80;99.90
33139;DHT22;19501;50.948;5.316;2023-11-18T13:41:31;8.80;99.90
33139;DHT22;19501;50.948;5.316;2023-11-18T13:43:57;8.70;99.90
33139;DHT22;19501;50.948;5.316;2023-11-18T13:46:24;8.70;99.90
33139;DHT22;19501;50.948;5.316;2023-11-18T13:48:51;8.70;99.90
33139;DHT22;19501;50.948;5.316;2023-11-18T13:51:18;8.70;99.90
33139;DHT22;19501;50.948;5.316;2023-11-18T13:53:45;8.70;99.90
33139;DHT22;19501;50.948;5.316;2023-11-18T13:56:12;8.70;99.90
33139;DHT22;19501;50.948;5.316;2023-11-18T13:58:38;8.70;99.90
33139;DHT22;19501;50.948;5.316;2023-11-18T14:01:08;8.70;99.90
33139;DHT22;19501;50.948;5.316;2023-11-18T14:03:37;8.70;99.90
33139;DHT22;19501;50.948;5.316;2023-11-18T14:06:06;8.70;99.90
33139;DHT22;19501;50.948;5.316;2023-11-18T14:08:31;8.80;99.90
33139;DHT22;19501;50.948;5.316;2023-11-18T14:10:58;8.70;99.90
33139;DHT22;19501;50.948;5.316;2023-11-18T14:13:24;8.70;99.90
33139;DHT22;19501;50.948;5.316;2023-11-18T14:15:50;8.70;99.90
33139;DHT22;19501;50.948;5.316;2023-11-18T14:18:20;8.70;99.90
33139;DHT22;19501;50.948;5.316;2023-11-18T14:20:46;8.70;99.90
33139;DHT22;19501;50.948;5.316;2023-11-18T14:23:14;8.70;99.90
33139;DHT22;19501;50.948;5.316;2023-11-18T14:25:39;8.70;99.90
33139;DHT22;19501;50.948;5.316;2023-11-18T14:28:05;8.70;99.90
33139;DHT22;19501;50.948;5.316;2023-11-18T14:30:34;8.70;99.90
33139;DHT22;19501;50.948;5.316;2023-11-18T14:33:00;8.80;99.90
33139;DHT22;19501;50.948;5.316;2023-11-18T14:35:26;8.80;99.90
33139;DHT22;19501;50.948;5.316;2023-11-18T14:37:51;8.80;99.90
33139;DHT22;19501;50.948;5.316;2023-11-18T14:40:17;8.80;99.90
33139;DHT22;19501;50.948;5.316;2023-11-18T14:42:45;8.80;99.90
33139;DHT22;19501;50.948;5.316;2023-11-18T14:45:13;8.80;99.90
33139;DHT22;19501;50.948;5.316;2023-11-18T14:47:43;8.80;99.90
33139;DHT22;19501;50.948;5.316;2023-11-18T14:50:19;8.80;99.90
33139;DHT22;19501;50.948;5.316;2023-11-18T14:52:48;8.80;99.90
33139;DHT22;19501;50.948;5.316;2023-11-18T14:55:17;8.80;99.90
33139;DHT22;19501;50.948;5.316;2023-11-18T14:57:44;8.90;99.90
33139;DHT22;19501;50.948;5.316;2023-11-18T15:00:11;8.90;99.90
33139;DHT22;19501;50.948;5.316;2023-11-18T15:02:48;8.90;99.90
33139;DHT22;19501;50.948;5.316;2023-11-18T15:05:17;8.90;99.90
33139;DHT22;19501;50.948;5.316;2023-11-18T15:07:48;8.90;99.90
33139;DHT22;19501;50.948;5.316;2023-11-18T15:10:24;8.90;99.90
33139;DHT22;19501;50.948;5.316;2023-11-18T15:12:54;9.00;99.90
33139;DHT22;19501;50.948;5.316;2023-11-18T15:15:27;9.00;99.90
33139;DHT22;19501;50.948;5.316;2023-11-18T15:20:30;9.00;99.90
33139;DHT22;19501;50.948;5.316;2023-11-18T15:22:55;9.00;99.90
33139;DHT22;19501;50.948;5.316;2023-11-18T15:25:21;9.10;99.90
33139;DHT22;19501;50.948;5.316;2023-11-18T15:27:47;9.10;99.90
33139;DHT22;19501;50.948;5.316;2023-11-18T15:30:14;9.10;99.90
33139;DHT22;19501;50.948;5.316;2023-11-18T15:32:41;9.10;99.90
33139;DHT22;19501;50.948;5.316;2023-11-18T15:35:08;9.10;99.90
33139;DHT22;19501;50.948;5.316;2023-11-18T15:37:38;9.10;99.90
33139;DHT22;19501;50.948;5.316;2023-11-18T15:40:05;9.10;99.90
33139;DHT22;19501;50.948;5.316;2023-11-18T15:42:45;9.10;99.90
33139;DHT22;19501;50.948;5.316;2023-11-18T15:45:15;9.10;99.90
33139;DHT22;19501;50.948;5.316;2023-11-18T15:47:43;9.10;99.90
33139;DHT22;19501;50.948;5.316;2023-11-18T15:50:10;9.20;99.90
33139;DHT22;19501;50.948;5.316;2023-11-18T15:52:46;9.20;99.90
33139;DHT22;19501;50.948;5.316;2023-11-18T15:55:13;9.20;99.90
33139;DHT22;19501;50.948;5.316;2023-11-18T15:57:43;9.20;99.90
33139;DHT22;19501;50.948;5.316;2023-11-18T16:00:11;9.20;99.90
33139;DHT22;19501;50.948;5.316;2023-11-18T16:02:46;9.20;99.90
33139;DHT22;19501;50.948;5.316;2023-11-18T16:05:12;9.20;99.90
33139;DHT22;19501;50.948;5.316;2023-11-18T16:07:44;9.20;99.90
33139;DHT22;19501;50.948;5.316;2023-11-18T16:10:11;9.20;99.90
33139;DHT22;19501;50.948;5.316;2023-11-18T16:12:48;9.20;99.90
33139;DHT22;19501;50.948;5.316;2023-11-18T16:15:16;9.20;99.90
33139;DHT22;19501;50.948;5.316;2023-11-18T16:17:42;9.30;99.90
33139;DHT22;19501;50.948;5.316;2023-11-18T16:20:09;9.30;99.90
33139;DHT22;19501;50.948;5.316;2023-11-18T16:22:35;9.30;99.90